createdAt,value
2018-04-08T00:00:39.321Z,21.40
2018-04-08T00:03:07.356Z,21.30
2018-04-08T00:05:35.363Z,21.30
2018-04-08T00:08:03.372Z,21.30
2018-04-08T00:10:31.424Z,21.30
2018-04-08T00:12:59.458Z,21.30
2018-04-08T00:15:27.480Z,21.30
2018-04-08T00:17:55.512Z,21.30
2018-04-08T00:20:23.536Z,21.30
2018-04-08T00:22:51.626Z,21.30
2018-04-08T00:25:19.671Z,21.30
2018-04-08T00:27:47.687Z,21.30
2018-04-08T00:30:17.266Z,21.20
2018-04-08T00:32:45.317Z,21.20
2018-04-08T00:35:13.349Z,21.20
2018-04-08T00:37:42.875Z,21.20
2018-04-08T00:40:10.888Z,21.20
2018-04-08T00:42:38.914Z,21.20
2018-04-08T00:45:06.969Z,21.20
2018-04-08T00:47:35.016Z,21.20
2018-04-08T00:50:03.068Z,21.20
2018-04-08T00:52:31.130Z,21.20
2018-04-08T00:54:59.124Z,21.20
2018-04-08T00:57:28.683Z,21.20
2018-04-08T00:59:56.738Z,21.20
2018-04-08T01:02:24.795Z,21.20
2018-04-08T01:04:52.856Z,21.10
2018-04-08T01:07:20.920Z,21.10
2018-04-08T01:09:48.974Z,21.10
2018-04-08T01:12:17.082Z,21.10
2018-04-08T01:14:45.968Z,21.10
2018-04-08T01:17:14.041Z,21.10
2018-04-08T01:19:42.087Z,21.10
2018-04-08T01:22:10.160Z,21.10
2018-04-08T01:24:38.257Z,21.10
2018-04-08T01:27:06.287Z,21.00
2018-04-08T01:29:34.349Z,21.00
2018-04-08T01:32:02.416Z,21.00
2018-04-08T01:34:30.479Z,21.00
2018-04-08T01:36:58.589Z,21.00
2018-04-08T01:39:26.633Z,21.00
2018-04-08T01:41:54.677Z,21.00
2018-04-08T01:44:22.748Z,21.00
2018-04-08T01:46:50.786Z,21.00
2018-04-08T01:49:18.860Z,21.00
2018-04-08T01:51:46.870Z,21.00
2018-04-08T01:54:14.929Z,21.00
2018-04-08T01:56:42.945Z,20.90
2018-04-08T01:59:11.007Z,20.90
2018-04-08T02:01:39.109Z,20.90
2018-04-08T02:04:07.155Z,20.90
2018-04-08T02:06:35.939Z,20.90
2018-04-08T02:09:04.012Z,20.90
2018-04-08T02:11:32.029Z,20.90
2018-04-08T02:14:00.081Z,20.90
2018-04-08T02:16:28.133Z,20.90
2018-04-08T02:18:56.909Z,20.90
2018-04-08T02:21:24.947Z,20.80
2018-04-08T02:23:52.979Z,20.80
2018-04-08T02:26:21.045Z,20.80
2018-04-08T02:28:49.067Z,20.80
2018-04-08T02:31:17.104Z,20.80
2018-04-08T02:33:45.131Z,20.80
2018-04-08T02:36:13.161Z,20.80
2018-04-08T02:38:41.222Z,20.80
2018-04-08T02:41:09.251Z,20.80
2018-04-08T02:43:37.271Z,20.70
2018-04-08T02:46:05.326Z,20.70
2018-04-08T02:48:33.346Z,20.80
2018-04-08T02:51:01.380Z,20.80
2018-04-08T02:53:29.440Z,20.70
2018-04-08T02:55:57.461Z,20.80
2018-04-08T02:58:25.484Z,20.70
2018-04-08T03:00:53.538Z,20.70
2018-04-08T03:03:21.592Z,20.70
2018-04-08T03:05:49.626Z,20.70
2018-04-08T03:08:17.698Z,20.70
2018-04-08T03:10:45.714Z,20.70
2018-04-08T03:13:14.510Z,20.70
2018-04-08T03:15:42.776Z,20.70
2018-04-08T03:18:10.780Z,20.70
2018-04-08T03:20:38.886Z,20.70
2018-04-08T03:23:06.921Z,20.60
2018-04-08T03:25:34.957Z,20.60
2018-04-08T03:28:02.962Z,20.60
2018-04-08T03:30:31.004Z,20.60
2018-04-08T03:32:59.015Z,20.60
2018-04-08T03:35:27.108Z,20.60
2018-04-08T03:37:58.311Z,20.60
2018-04-08T03:40:27.597Z,20.60
2018-04-08T03:42:55.649Z,20.50
2018-04-08T03:45:23.693Z,20.60
2018-04-08T03:47:51.699Z,20.50
2018-04-08T03:50:19.727Z,20.50
2018-04-08T03:52:47.768Z,20.50
2018-04-08T03:55:15.839Z,20.50
2018-04-08T03:57:43.863Z,20.50
2018-04-08T04:00:11.889Z,20.50
2018-04-08T04:02:39.937Z,20.50
2018-04-08T04:05:08.741Z,20.50
2018-04-08T04:07:36.769Z,20.40
2018-04-08T04:10:04.799Z,20.50
2018-04-08T04:12:32.817Z,20.50
2018-04-08T04:15:00.864Z,20.50
2018-04-08T04:17:28.873Z,20.40
2018-04-08T04:19:57.665Z,20.40
2018-04-08T04:22:25.917Z,20.40
2018-04-08T04:24:53.953Z,20.40
2018-04-08T04:27:21.989Z,20.40
2018-04-08T04:29:50.829Z,20.40
2018-04-08T04:32:18.848Z,20.40
2018-04-08T04:34:46.884Z,20.40
2018-04-08T04:37:14.912Z,20.40
2018-04-08T04:39:42.970Z,20.40
2018-04-08T04:42:11.029Z,20.30
2018-04-08T04:44:39.058Z,20.30
2018-04-08T04:47:07.112Z,20.30
2018-04-08T04:49:35.124Z,20.30
2018-04-08T04:52:03.180Z,20.30
2018-04-08T04:54:31.227Z,20.30
2018-04-08T04:56:59.258Z,20.30
2018-04-08T04:59:27.283Z,20.30
2018-04-08T05:01:55.326Z,20.30
2018-04-08T05:04:24.115Z,20.30
2018-04-08T05:06:52.197Z,20.20
2018-04-08T05:09:20.660Z,20.30
2018-04-08T05:11:48.696Z,20.20
2018-04-08T05:14:16.717Z,20.20
2018-04-08T05:16:45.535Z,20.20
2018-04-08T05:19:13.590Z,20.20
2018-04-08T05:21:41.645Z,20.20
2018-04-08T05:24:09.690Z,20.20
2018-04-08T05:26:37.700Z,20.20
2018-04-08T05:29:06.491Z,20.20
2018-04-08T05:31:34.542Z,20.20
2018-04-08T05:34:02.571Z,20.20
2018-04-08T05:36:31.365Z,20.20
2018-04-08T05:38:59.363Z,20.20
2018-04-08T05:41:27.377Z,20.20
2018-04-08T05:43:55.467Z,20.20
2018-04-08T05:46:23.467Z,20.30
2018-04-08T05:48:51.500Z,20.50
2018-04-08T05:51:19.539Z,20.60
2018-04-08T05:53:47.590Z,20.60
2018-04-08T05:56:16.396Z,20.40
2018-04-08T05:58:45.203Z,20.40
2018-04-08T06:01:13.281Z,20.40
2018-04-08T06:03:41.309Z,20.40
2018-04-08T06:06:09.389Z,20.60
2018-04-08T06:08:38.970Z,20.80
2018-04-08T06:11:07.009Z,20.80
2018-04-08T06:13:35.023Z,20.90
2018-04-08T06:16:03.081Z,20.90
2018-04-08T06:18:31.116Z,21.00
2018-04-08T06:20:59.194Z,20.80
2018-04-08T06:23:27.261Z,20.80
2018-04-08T06:25:55.319Z,20.90
2018-04-08T06:28:23.380Z,21.00
2018-04-08T06:30:51.399Z,21.00
2018-04-08T06:33:19.502Z,21.10
2018-04-08T06:35:47.531Z,21.10
2018-04-08T06:38:15.569Z,21.00
2018-04-08T06:40:43.620Z,20.80
2018-04-08T06:43:12.521Z,20.80
2018-04-08T06:45:40.902Z,20.80
2018-04-08T06:48:09.732Z,21.00
2018-04-08T06:50:37.776Z,21.00
2018-04-08T06:53:05.838Z,21.00
2018-04-08T06:55:34.647Z,21.10
2018-04-08T06:58:02.704Z,21.10
2018-04-08T07:03:02.155Z,21.10
2018-04-08T07:05:30.759Z,21.20
2018-04-08T07:07:58.829Z,21.10
2018-04-08T07:10:26.865Z,21.00
2018-04-08T07:12:54.892Z,21.00
2018-04-08T07:15:23.771Z,21.00
2018-04-08T07:17:51.862Z,21.00
2018-04-08T07:20:19.883Z,21.00
2018-04-08T07:22:48.059Z,20.90
2018-04-08T07:25:16.093Z,20.90
2018-04-08T07:27:44.155Z,20.80
2018-04-08T07:30:12.213Z,20.80
2018-04-08T07:32:41.079Z,20.80
2018-04-08T07:35:09.851Z,20.80
2018-04-08T07:37:38.651Z,20.80
2018-04-08T07:40:06.792Z,20.80
2018-04-08T07:42:35.976Z,20.80
2018-04-08T07:45:04.064Z,20.80
2018-04-08T07:47:32.094Z,20.80
2018-04-08T07:50:00.273Z,20.80
2018-04-08T07:52:28.261Z,20.70
2018-04-08T07:54:56.318Z,20.80
2018-04-08T07:57:24.353Z,20.80
2018-04-08T07:59:52.414Z,20.80
2018-04-08T08:02:20.478Z,20.90
2018-04-08T08:04:48.566Z,21.10
2018-04-08T08:07:16.574Z,21.40
2018-04-08T08:09:45.400Z,21.80
2018-04-08T08:12:13.441Z,21.70
2018-04-08T08:14:41.533Z,21.80
2018-04-08T08:17:09.591Z,21.90
2018-04-08T08:19:37.624Z,21.80
2018-04-08T08:22:05.674Z,21.60
2018-04-08T08:24:33.700Z,21.50
2018-04-08T08:27:01.740Z,21.40
2018-04-08T08:29:29.807Z,21.40
2018-04-08T08:31:57.918Z,21.50
2018-04-08T08:34:25.920Z,21.60
2018-04-08T08:36:53.939Z,21.70
2018-04-08T08:39:21.999Z,21.70
2018-04-08T08:41:50.053Z,21.70
2018-04-08T08:44:18.078Z,21.70
2018-04-08T08:46:46.126Z,21.70
2018-04-08T08:49:14.233Z,21.70
2018-04-08T08:51:42.250Z,21.70
2018-04-08T08:54:10.312Z,21.70
2018-04-08T08:56:38.342Z,21.70
2018-04-08T08:59:06.423Z,21.70
2018-04-08T09:01:34.444Z,21.70
2018-04-08T09:04:02.553Z,21.70
2018-04-08T09:06:30.614Z,21.70
2018-04-08T09:08:58.659Z,21.70
2018-04-08T09:11:26.681Z,21.60
2018-04-08T09:13:54.720Z,21.60
2018-04-08T09:16:22.782Z,21.60
2018-04-08T09:18:52.585Z,21.50
2018-04-08T09:21:22.940Z,21.50
2018-04-08T09:23:51.253Z,21.40
2018-04-08T09:26:19.347Z,21.40
2018-04-08T09:28:48.146Z,21.30
2018-04-08T09:31:16.184Z,21.30
2018-04-08T09:33:44.259Z,21.30
2018-04-08T09:36:12.364Z,21.30
2018-04-08T09:38:40.417Z,21.30
2018-04-08T09:41:08.449Z,21.30
2018-04-08T09:43:36.468Z,21.30
2018-04-08T09:46:04.515Z,21.20
2018-04-08T09:48:33.538Z,21.10
2018-04-08T09:51:01.852Z,21.10
2018-04-08T09:53:29.882Z,21.10
2018-04-08T09:55:57.939Z,21.10
2018-04-08T09:58:26.752Z,21.10
2018-04-08T10:01:09.223Z,21.10
2018-04-08T10:03:41.727Z,21.10
2018-04-08T10:06:09.778Z,21.10
2018-04-08T10:08:38.826Z,21.10
2018-04-08T10:11:06.838Z,21.10
2018-04-08T10:13:34.890Z,21.10
2018-04-08T10:16:02.964Z,21.10
2018-04-08T10:18:32.540Z,21.10
2018-04-08T10:21:00.570Z,21.10
2018-04-08T10:23:29.131Z,21.10
2018-04-08T10:25:57.975Z,21.10
2018-04-08T10:28:26.046Z,21.10
2018-04-08T10:30:54.088Z,21.10
2018-04-08T10:33:22.182Z,21.10
2018-04-08T10:35:50.984Z,21.10
2018-04-08T10:38:19.012Z,21.10
2018-04-08T10:40:47.081Z,21.10
2018-04-08T10:43:15.103Z,21.00
2018-04-08T10:45:43.183Z,21.00
2018-04-08T10:48:11.213Z,21.00
2018-04-08T10:50:39.303Z,21.10
2018-04-08T10:53:07.389Z,21.10
2018-04-08T10:55:35.433Z,21.10
2018-04-08T10:58:03.555Z,21.10
2018-04-08T11:00:31.607Z,21.10
2018-04-08T11:02:59.641Z,21.10
2018-04-08T11:05:27.683Z,21.10
2018-04-08T11:07:55.711Z,21.10
2018-04-08T11:10:23.746Z,21.20
2018-04-08T11:12:51.775Z,21.20
2018-04-08T11:15:19.814Z,21.20
2018-04-08T11:17:47.886Z,21.30
2018-04-08T11:20:15.938Z,21.20
2018-04-08T11:22:43.965Z,21.20
2018-04-08T11:25:12.772Z,21.30
2018-04-08T11:27:40.793Z,21.30
2018-04-08T11:30:08.854Z,21.30
2018-04-08T11:32:36.900Z,21.30
2018-04-08T11:35:04.968Z,21.30
2018-04-08T11:37:33.001Z,21.30
2018-04-08T11:40:01.037Z,21.40
2018-04-08T11:42:29.259Z,21.40
2018-04-08T11:44:57.285Z,21.40
2018-04-08T11:47:25.333Z,21.40
2018-04-08T11:49:54.688Z,21.40
2018-04-08T11:52:29.099Z,21.40
2018-04-08T11:54:57.144Z,21.40
2018-04-08T11:57:25.185Z,21.40
2018-04-08T11:59:53.966Z,21.40
2018-04-08T12:02:22.030Z,21.40
2018-04-08T12:04:50.176Z,21.40
2018-04-08T12:07:18.241Z,21.40
2018-04-08T12:09:46.271Z,21.40
2018-04-08T12:12:14.349Z,21.40
2018-04-08T12:14:42.381Z,21.40
2018-04-08T12:17:10.423Z,21.40
2018-04-08T12:19:38.470Z,21.40
2018-04-08T12:22:06.493Z,21.40
2018-04-08T12:24:34.574Z,21.40
2018-04-08T12:27:13.265Z,21.40
2018-04-08T12:29:41.305Z,21.40
2018-04-08T12:32:09.377Z,21.40
2018-04-08T12:34:38.226Z,21.40
2018-04-08T12:37:06.260Z,21.40
2018-04-08T12:39:34.281Z,21.40
2018-04-08T12:42:02.288Z,21.40
2018-04-08T12:44:30.327Z,21.40
2018-04-08T12:46:58.355Z,21.30
2018-04-08T12:49:26.384Z,21.30
2018-04-08T12:51:54.454Z,21.30
2018-04-08T12:54:22.495Z,21.30
2018-04-08T12:56:51.324Z,21.30
2018-04-08T12:59:19.360Z,21.30
2018-04-08T13:01:47.382Z,21.30
2018-04-08T13:04:16.965Z,21.30
2018-04-08T13:06:44.978Z,21.30
2018-04-08T13:09:13.012Z,21.30
2018-04-08T13:11:41.060Z,21.30
2018-04-08T13:14:09.136Z,21.30
2018-04-08T13:16:37.547Z,21.30
2018-04-08T13:19:05.576Z,21.30
2018-04-08T13:21:33.632Z,21.30
2018-04-08T13:24:01.680Z,21.30
2018-04-08T13:26:29.716Z,21.30
2018-04-08T13:28:58.669Z,21.30
2018-04-08T13:31:26.729Z,21.30
2018-04-08T13:33:54.830Z,21.30
2018-04-08T13:36:22.856Z,21.30
2018-04-08T13:38:50.904Z,21.30
2018-04-08T13:41:18.928Z,21.30
2018-04-08T13:43:47.954Z,21.30
2018-04-08T13:46:16.012Z,21.30
2018-04-08T13:48:44.023Z,21.30
2018-04-08T13:51:12.043Z,21.30
2018-04-08T13:53:40.096Z,21.30
2018-04-08T13:56:08.122Z,21.30
2018-04-08T13:58:36.170Z,21.30
2018-04-08T14:01:04.202Z,21.30
2018-04-08T14:03:32.359Z,21.30
2018-04-08T14:06:00.398Z,21.30
2018-04-08T14:08:28.440Z,21.30
2018-04-08T14:10:56.501Z,21.40
2018-04-08T14:13:24.602Z,21.40
2018-04-08T14:15:52.621Z,21.50
2018-04-08T14:18:20.661Z,21.60
2018-04-08T14:20:48.672Z,21.70
2018-04-08T14:23:16.799Z,21.70
2018-04-08T14:25:45.015Z,21.80
2018-04-08T14:28:13.914Z,21.90
2018-04-08T14:30:41.913Z,21.90
2018-04-08T14:33:09.916Z,21.90
2018-04-08T14:35:37.957Z,22.00
2018-04-08T14:38:06.013Z,22.00
2018-04-08T14:40:34.042Z,22.10
2018-04-08T14:43:02.171Z,22.10
2018-04-08T14:45:30.187Z,22.10
2018-04-08T14:47:58.216Z,22.20
2018-04-08T14:50:26.244Z,22.20
2018-04-08T14:52:54.311Z,22.20
2018-04-08T14:55:22.374Z,22.20
2018-04-08T14:57:50.426Z,22.20
2018-04-08T15:00:18.450Z,22.20
2018-04-08T15:02:46.479Z,22.20
2018-04-08T15:05:14.562Z,22.20
2018-04-08T15:07:42.609Z,22.20
2018-04-08T15:10:10.638Z,22.20
2018-04-08T15:12:38.660Z,22.20
2018-04-08T15:15:06.695Z,22.20
2018-04-08T15:17:34.786Z,22.10
2018-04-08T15:20:03.578Z,22.10
2018-04-08T15:22:31.620Z,22.10
2018-04-08T15:24:59.630Z,22.10
2018-04-08T15:27:27.659Z,22.10
2018-04-08T15:29:55.694Z,22.10
2018-04-08T15:32:23.712Z,22.00
2018-04-08T15:34:52.517Z,22.00
2018-04-08T15:37:20.566Z,22.00
2018-04-08T15:39:48.603Z,22.00
2018-04-08T15:42:16.636Z,22.00
2018-04-08T15:44:44.652Z,22.00
2018-04-08T15:47:12.688Z,22.00
2018-04-08T15:49:40.718Z,22.00
2018-04-08T15:52:08.792Z,22.00
2018-04-08T15:54:37.043Z,22.00
2018-04-08T15:57:05.090Z,22.00
2018-04-08T15:59:33.159Z,22.00
2018-04-08T16:02:01.981Z,22.00
2018-04-08T16:04:30.002Z,22.00
2018-04-08T16:06:58.090Z,22.00
2018-04-08T16:09:26.144Z,21.90
2018-04-08T16:11:54.327Z,21.70
2018-04-08T16:14:22.366Z,21.60
2018-04-08T16:16:51.442Z,21.60
2018-04-08T16:19:19.501Z,21.70
2018-04-08T16:21:47.536Z,21.80
2018-04-08T16:24:16.361Z,21.90
2018-04-08T16:26:44.369Z,21.90
2018-04-08T16:29:12.446Z,21.90
2018-04-08T16:31:40.510Z,21.90
2018-04-08T16:34:08.538Z,21.90
2018-04-08T16:36:36.633Z,21.90
2018-04-08T16:39:04.612Z,21.90
2018-04-08T16:41:32.651Z,21.80
2018-04-08T16:44:00.699Z,21.80
2018-04-08T16:46:28.703Z,21.80
2018-04-08T16:48:56.746Z,21.80
2018-04-08T16:51:24.870Z,21.80
2018-04-08T16:53:52.895Z,21.80
2018-04-08T16:56:20.923Z,21.80
2018-04-08T16:58:49.146Z,21.90
2018-04-08T17:01:17.165Z,21.90
2018-04-08T17:03:45.202Z,21.90
2018-04-08T17:06:13.193Z,21.90
2018-04-08T17:08:41.245Z,21.90
2018-04-08T17:11:09.282Z,21.90
2018-04-08T17:13:37.580Z,21.90
2018-04-08T17:16:05.598Z,21.90
2018-04-08T17:18:34.008Z,21.90
2018-04-08T17:21:02.110Z,21.90
2018-04-08T17:23:30.903Z,21.90
2018-04-08T17:25:58.948Z,21.90
2018-04-08T17:28:26.977Z,21.90
2018-04-08T17:30:54.968Z,21.90
2018-04-08T17:33:23.046Z,21.90
2018-04-08T17:35:51.068Z,21.90
2018-04-08T17:38:19.070Z,21.90
2018-04-08T17:40:47.091Z,21.90
2018-04-08T17:43:15.901Z,21.90
2018-04-08T17:45:43.946Z,21.90
2018-04-08T17:48:12.028Z,21.90
2018-04-08T17:50:40.050Z,21.90
2018-04-08T17:53:08.100Z,21.90
2018-04-08T17:55:36.268Z,21.90
2018-04-08T17:58:04.327Z,21.90
2018-04-08T18:00:32.436Z,21.90
2018-04-08T18:03:00.532Z,21.90
2018-04-08T18:05:28.533Z,21.90
2018-04-08T18:07:56.593Z,21.90
2018-04-08T18:10:26.127Z,21.80
2018-04-08T18:12:54.167Z,21.80
2018-04-08T18:15:22.197Z,21.80
2018-04-08T18:17:50.217Z,21.80
2018-04-08T18:20:18.238Z,21.80
2018-04-08T18:22:46.299Z,21.80
2018-04-08T18:25:14.547Z,21.80
2018-04-08T18:27:43.336Z,21.80
2018-04-08T18:30:11.365Z,21.80
2018-04-08T18:32:40.229Z,21.80
2018-04-08T18:35:08.250Z,21.80
2018-04-08T18:37:36.288Z,21.80
2018-04-08T18:40:04.295Z,21.80
2018-04-08T18:42:32.329Z,21.80
2018-04-08T18:45:00.404Z,21.80
2018-04-08T18:47:28.837Z,21.80
2018-04-08T18:49:56.841Z,21.80
2018-04-08T18:52:24.878Z,21.80
2018-04-08T18:54:52.911Z,21.80
2018-04-08T18:57:20.975Z,21.80
2018-04-08T18:59:48.992Z,21.80
2018-04-08T19:02:17.054Z,21.80
2018-04-08T19:04:46.573Z,21.70
2018-04-08T19:07:14.606Z,21.70
2018-04-08T19:09:42.651Z,21.70
2018-04-08T19:12:11.431Z,21.80
2018-04-08T19:14:45.013Z,21.80
2018-04-08T19:17:18.556Z,21.80
2018-04-08T19:19:46.614Z,21.80
2018-04-08T19:22:14.656Z,21.70
2018-04-08T19:24:43.428Z,21.70
2018-04-08T19:30:10.548Z,21.70
2018-04-08T19:32:38.651Z,21.70
2018-04-08T19:35:06.708Z,21.70
2018-04-08T19:37:34.730Z,21.70
2018-04-08T19:40:02.740Z,21.70
2018-04-08T19:42:30.800Z,21.70
2018-04-08T19:44:58.831Z,21.70
2018-04-08T19:47:26.871Z,21.70
2018-04-08T19:49:54.912Z,21.70
2018-04-08T19:52:22.928Z,21.70
2018-04-08T19:54:50.971Z,21.70
2018-04-08T19:57:19.018Z,21.70
2018-04-08T20:03:17.579Z,21.70
2018-04-08T20:05:45.624Z,21.70
2018-04-08T20:08:13.676Z,21.70
2018-04-08T20:10:41.698Z,21.70
2018-04-08T20:13:09.708Z,21.80
2018-04-08T20:15:37.773Z,21.80
2018-04-08T20:18:06.648Z,21.70
2018-04-08T20:20:34.674Z,21.70
2018-04-08T20:23:02.689Z,21.70
2018-04-08T20:25:30.701Z,21.70
2018-04-08T20:27:58.718Z,21.70
2018-04-08T20:30:26.716Z,21.70
2018-04-08T20:32:54.742Z,21.60
2018-04-08T20:35:22.804Z,21.60
2018-04-08T20:37:50.842Z,21.60
2018-04-08T20:40:19.631Z,21.60
2018-04-08T20:42:47.698Z,21.60
2018-04-08T20:45:15.705Z,21.60
2018-04-08T20:47:43.752Z,21.60
2018-04-08T20:50:11.796Z,21.60
2018-04-08T20:52:39.844Z,21.60
2018-04-08T20:55:07.833Z,21.60
2018-04-08T20:57:37.354Z,21.60
2018-04-08T21:00:06.139Z,21.60
2018-04-08T21:02:34.188Z,21.60
2018-04-08T21:05:02.195Z,21.60
2018-04-08T21:07:30.216Z,21.60
2018-04-08T21:09:58.248Z,21.70
2018-04-08T21:12:26.295Z,21.70
2018-04-08T21:14:54.302Z,21.70
2018-04-08T21:17:22.320Z,21.70
2018-04-08T21:19:50.331Z,21.70
2018-04-08T21:22:18.346Z,21.80
2018-04-08T21:24:46.382Z,21.70
2018-04-08T21:27:14.389Z,21.70
2018-04-08T21:29:42.429Z,21.70
2018-04-08T21:32:10.444Z,21.70
2018-04-08T21:34:38.523Z,21.70
2018-04-08T21:37:06.560Z,21.70
2018-04-08T21:39:34.594Z,21.70
2018-04-08T21:42:02.865Z,21.70
2018-04-08T21:44:30.864Z,21.70
2018-04-08T21:46:58.882Z,21.70
2018-04-08T21:49:26.959Z,21.70
2018-04-08T21:51:54.978Z,21.70
2018-04-08T21:54:23.018Z,21.60
2018-04-08T21:56:51.032Z,21.60
2018-04-08T21:59:19.092Z,21.60
2018-04-08T22:01:47.889Z,21.60
2018-04-08T22:04:15.892Z,21.60
2018-04-08T22:06:43.943Z,21.60
2018-04-08T22:09:11.965Z,21.60
2018-04-08T22:11:39.993Z,21.60
2018-04-08T22:14:08.017Z,21.60
2018-04-08T22:16:36.091Z,21.60
2018-04-08T22:19:04.105Z,21.50
2018-04-08T22:21:32.129Z,21.50
2018-04-08T22:24:00.157Z,21.50
2018-04-08T22:26:28.180Z,21.50
2018-04-08T22:28:56.181Z,21.50
2018-04-08T22:31:24.263Z,21.50
2018-04-08T22:33:52.289Z,21.50
2018-04-08T22:36:21.053Z,21.50
2018-04-08T22:38:49.078Z,21.40
2018-04-08T22:41:17.112Z,21.40
2018-04-08T22:43:45.930Z,21.40
2018-04-08T22:46:13.976Z,21.40
2018-04-08T22:48:41.976Z,21.40
2018-04-08T22:51:10.007Z,21.40
2018-04-08T22:53:38.094Z,21.40
2018-04-08T22:56:06.898Z,21.40
2018-04-08T22:58:34.913Z,21.40
2018-04-08T23:01:02.935Z,21.40
2018-04-08T23:03:31.710Z,21.30
2018-04-08T23:05:59.726Z,21.30
2018-04-08T23:08:27.768Z,21.30
2018-04-08T23:10:56.548Z,21.30
2018-04-08T23:13:25.339Z,21.30
2018-04-08T23:15:53.368Z,21.30
2018-04-08T23:18:21.384Z,21.30
2018-04-08T23:20:49.430Z,21.30
2018-04-08T23:23:17.468Z,21.30
2018-04-08T23:25:45.590Z,21.30
2018-04-08T23:28:13.596Z,21.20
2018-04-08T23:30:41.632Z,21.20
2018-04-08T23:33:09.691Z,21.20
2018-04-08T23:35:37.717Z,21.20
2018-04-08T23:38:05.741Z,21.20
2018-04-08T23:40:33.787Z,21.20
2018-04-08T23:43:01.800Z,21.20
2018-04-08T23:45:30.821Z,21.20
2018-04-08T23:47:58.843Z,21.20
2018-04-08T23:50:26.874Z,21.20
2018-04-08T23:52:54.865Z,21.20
2018-04-08T23:55:22.871Z,21.20
2018-04-08T23:57:50.903Z,21.10
